createdAt,value
2022-09-19T00:01:16.532Z,9.90
2022-09-19T00:03:45.368Z,9.90
2022-09-19T00:06:14.937Z,9.90
2022-09-19T00:08:44.435Z,9.80
2022-09-19T00:11:12.429Z,9.90
2022-09-19T00:13:42.410Z,9.90
2022-09-19T00:16:09.072Z,10.00
2022-09-19T00:18:35.726Z,10.00
2022-09-19T00:21:02.366Z,10.10
2022-09-19T00:23:48.247Z,10.10
2022-09-19T00:26:19.753Z,10.10
2022-09-19T00:28:47.203Z,10.20
2022-09-19T00:31:21.203Z,10.20
2022-09-19T00:33:49.954Z,10.20
2022-09-19T00:36:17.812Z,10.30
2022-09-19T00:38:47.920Z,10.30
2022-09-19T00:41:27.553Z,10.40
2022-09-19T00:43:57.119Z,10.40
2022-09-19T00:46:26.665Z,10.40
2022-09-19T00:48:57.508Z,10.40
2022-09-19T00:51:34.651Z,10.40
2022-09-19T00:54:05.659Z,10.40
2022-09-19T00:56:33.910Z,10.30
2022-09-19T00:59:02.769Z,10.30
2022-09-19T01:01:29.743Z,10.30
2022-09-19T01:03:56.714Z,10.20
2022-09-19T01:06:49.308Z,10.10
2022-09-19T01:09:37.897Z,10.00
2022-09-19T01:12:47.695Z,9.90
2022-09-19T01:15:33.699Z,9.80
2022-09-19T01:18:02.489Z,9.80
2022-09-19T01:20:51.683Z,9.70
2022-09-19T01:23:40.305Z,9.60
2022-09-19T01:26:43.427Z,9.60
2022-09-19T01:29:20.510Z,9.50
2022-09-19T01:31:53.621Z,9.50
2022-09-19T01:34:32.271Z,9.40
2022-09-19T01:37:04.820Z,9.40
2022-09-19T01:39:37.696Z,9.40
2022-09-19T01:42:05.316Z,9.30
2022-09-19T01:44:32.323Z,9.40
2022-09-19T01:47:11.161Z,9.40
2022-09-19T01:49:56.779Z,9.40
2022-09-19T01:52:52.610Z,9.40
2022-09-19T01:55:41.471Z,9.40
2022-09-19T01:58:25.959Z,9.40
2022-09-19T02:01:17.376Z,9.40
2022-09-19T02:04:02.049Z,9.50
2022-09-19T02:06:44.523Z,9.40
2022-09-19T02:09:39.479Z,9.40
2022-09-19T02:12:08.643Z,9.30
2022-09-19T02:14:40.556Z,9.30
2022-09-19T02:17:17.614Z,9.30
2022-09-19T02:19:49.215Z,9.20
2022-09-19T02:22:25.416Z,9.30
2022-09-19T02:24:59.906Z,9.30
2022-09-19T02:27:36.214Z,9.40
2022-09-19T02:30:09.075Z,9.40
2022-09-19T02:32:47.858Z,9.50
2022-09-19T02:35:39.267Z,9.50
2022-09-19T02:38:26.585Z,9.50
2022-09-19T02:41:02.071Z,9.50
2022-09-19T02:44:02.587Z,9.50
2022-09-19T02:46:55.860Z,9.50
2022-09-19T02:49:48.039Z,9.50
2022-09-19T02:52:21.138Z,9.40
2022-09-19T02:54:54.287Z,9.40
2022-09-19T02:57:25.180Z,9.40
2022-09-19T02:59:59.555Z,9.40
2022-09-19T03:02:34.530Z,9.40
2022-09-19T03:05:12.039Z,9.40
2022-09-19T03:08:02.309Z,9.30
2022-09-19T03:10:33.016Z,9.30
2022-09-19T03:13:25.427Z,9.30
2022-09-19T03:16:07.977Z,9.20
2022-09-19T03:18:38.851Z,9.20
2022-09-19T03:21:09.842Z,9.20
2022-09-19T03:23:50.290Z,9.30
2022-09-19T03:26:26.434Z,9.30
2022-09-19T03:28:56.563Z,9.30
2022-09-19T03:31:27.076Z,9.30
2022-09-19T03:33:56.580Z,9.30
2022-09-19T03:36:25.867Z,9.30
2022-09-19T03:38:54.262Z,9.30
2022-09-19T03:41:24.074Z,9.30
2022-09-19T03:43:52.332Z,9.40
2022-09-19T03:46:23.546Z,9.50
2022-09-19T03:48:51.871Z,9.60
2022-09-19T03:51:19.534Z,9.70
2022-09-19T03:53:46.614Z,9.80
2022-09-19T03:56:16.054Z,9.80
2022-09-19T03:58:43.404Z,9.90
2022-09-19T04:01:14.410Z,9.90
2022-09-19T04:03:43.806Z,9.90
2022-09-19T04:06:11.470Z,9.90
2022-09-19T04:08:38.657Z,10.00
2022-09-19T04:11:06.483Z,9.90
2022-09-19T04:13:34.639Z,9.90
2022-09-19T04:16:08.073Z,9.90
2022-09-19T04:18:35.269Z,9.80
2022-09-19T04:21:04.309Z,9.80
2022-09-19T04:23:49.980Z,9.70
2022-09-19T04:26:50.998Z,9.70
2022-09-19T04:29:20.376Z,9.60
2022-09-19T04:31:47.434Z,9.60
2022-09-19T04:34:16.873Z,9.60
2022-09-19T04:36:52.769Z,9.60
2022-09-19T04:39:19.699Z,9.60
2022-09-19T04:41:46.438Z,9.50
2022-09-19T04:44:13.146Z,9.50
2022-09-19T04:46:58.607Z,9.50
2022-09-19T04:49:35.588Z,9.50
2022-09-19T04:52:03.590Z,9.40
2022-09-19T04:54:36.114Z,9.40
2022-09-19T04:57:06.278Z,9.40
2022-09-19T04:59:35.044Z,9.50
2022-09-19T05:02:08.089Z,9.50
2022-09-19T05:04:35.735Z,9.60
2022-09-19T05:07:03.149Z,9.60
2022-09-19T05:09:31.692Z,9.70
2022-09-19T05:12:05.731Z,9.70
2022-09-19T05:14:36.698Z,9.70
2022-09-19T05:17:04.370Z,9.70
2022-09-19T05:19:33.143Z,9.70
2022-09-19T05:22:00.051Z,9.70
2022-09-19T05:24:26.794Z,9.70
2022-09-19T05:26:55.206Z,9.70
2022-09-19T05:29:21.811Z,9.60
2022-09-19T05:32:05.978Z,9.60
2022-09-19T05:34:41.582Z,9.50
2022-09-19T05:37:20.541Z,9.50
2022-09-19T05:40:15.712Z,9.50
2022-09-19T05:42:48.015Z,9.40
2022-09-19T05:45:15.955Z,9.40
2022-09-19T05:47:43.464Z,9.40
2022-09-19T05:50:12.491Z,9.40
2022-09-19T05:52:59.798Z,9.30
2022-09-19T05:55:28.324Z,9.40
2022-09-19T05:58:25.471Z,9.40
2022-09-19T06:00:52.698Z,9.50
2022-09-19T06:03:21.257Z,9.50
2022-09-19T06:05:51.859Z,9.60
2022-09-19T06:08:20.519Z,9.70
2022-09-19T06:10:50.101Z,9.80
2022-09-19T06:13:20.214Z,9.90
2022-09-19T06:15:47.632Z,10.00
2022-09-19T06:18:27.852Z,10.10
2022-09-19T06:21:01.228Z,10.30
2022-09-19T06:23:31.140Z,10.40
2022-09-19T06:25:57.785Z,10.50
2022-09-19T06:28:24.410Z,10.60
2022-09-19T06:31:04.283Z,10.70
2022-09-19T06:33:53.776Z,10.80
2022-09-19T06:36:24.906Z,10.90
2022-09-19T06:38:51.975Z,11.00
2022-09-19T06:41:39.572Z,11.00
2022-09-19T06:44:19.000Z,11.20
2022-09-19T06:47:05.512Z,11.30
2022-09-19T06:49:53.479Z,11.50
2022-09-19T06:52:25.407Z,11.60
2022-09-19T06:54:53.008Z,11.80
2022-09-19T06:57:19.786Z,12.00
2022-09-19T06:59:46.424Z,12.20
2022-09-19T07:02:14.914Z,12.40
2022-09-19T07:04:41.667Z,12.60
2022-09-19T07:07:19.970Z,12.70
2022-09-19T07:09:50.811Z,12.70
2022-09-19T07:12:20.214Z,12.80
2022-09-19T07:14:49.210Z,12.80
2022-09-19T07:17:17.183Z,12.80
2022-09-19T07:19:45.935Z,12.90
2022-09-19T07:22:36.498Z,13.10
2022-09-19T07:25:18.641Z,13.20
2022-09-19T07:28:14.776Z,13.20
2022-09-19T07:30:44.386Z,13.20
2022-09-19T07:33:12.991Z,13.20
2022-09-19T07:35:42.186Z,13.10
2022-09-19T07:38:15.038Z,13.10
2022-09-19T07:41:02.441Z,13.10
2022-09-19T07:43:39.364Z,13.20
2022-09-19T07:46:17.334Z,13.30
2022-09-19T07:48:54.724Z,13.40
2022-09-19T07:51:28.838Z,13.40
2022-09-19T07:53:57.219Z,13.50
2022-09-19T07:56:24.928Z,13.50
2022-09-19T07:58:52.134Z,13.50
2022-09-19T08:01:19.420Z,13.60
2022-09-19T08:04:05.582Z,13.70
2022-09-19T08:06:42.294Z,13.80
2022-09-19T08:09:11.632Z,13.90
2022-09-19T08:11:58.091Z,14.10
2022-09-19T08:14:28.144Z,14.30
2022-09-19T08:16:55.617Z,14.40
2022-09-19T08:19:22.360Z,14.50
2022-09-19T08:21:50.067Z,14.50
2022-09-19T08:24:16.687Z,14.50
2022-09-19T08:26:43.644Z,14.50
2022-09-19T08:29:10.812Z,14.60
2022-09-19T08:31:48.504Z,14.90
2022-09-19T08:34:16.027Z,15.20
2022-09-19T08:36:43.243Z,15.40
2022-09-19T08:39:09.966Z,15.40
2022-09-19T08:41:52.134Z,15.20
2022-09-19T08:44:45.596Z,15.10
2022-09-19T08:47:19.650Z,15.10
2022-09-19T08:50:27.040Z,15.00
2022-09-19T08:52:59.660Z,14.90
2022-09-19T08:55:33.348Z,14.80
2022-09-19T08:58:18.491Z,14.70
2022-09-19T09:01:08.468Z,14.50
2022-09-19T09:04:03.882Z,14.30
2022-09-19T09:06:59.561Z,14.10
2022-09-19T09:09:58.825Z,14.20
2022-09-19T09:12:45.428Z,14.20
2022-09-19T09:15:49.279Z,14.20
2022-09-19T09:18:37.831Z,14.20
2022-09-19T09:21:41.732Z,14.20
2022-09-19T09:24:33.031Z,14.40
2022-09-19T09:27:26.535Z,14.40
2022-09-19T09:30:08.519Z,14.30
2022-09-19T09:32:52.596Z,14.30
2022-09-19T09:35:27.820Z,14.40
2022-09-19T09:38:05.633Z,14.50
2022-09-19T09:41:12.310Z,14.60
2022-09-19T09:44:25.575Z,14.70
2022-09-19T09:47:02.558Z,14.80
2022-09-19T09:49:34.472Z,15.00
2022-09-19T09:52:37.799Z,15.20
2022-09-19T09:55:46.532Z,15.40
2022-09-19T09:58:34.703Z,15.60
2022-09-19T10:01:43.296Z,16.20
2022-09-19T10:04:21.769Z,16.50
2022-09-19T10:07:12.020Z,16.50
2022-09-19T10:09:50.961Z,16.40
2022-09-19T10:15:20.368Z,16.20
2022-09-19T10:18:06.048Z,16.30
2022-09-19T10:20:43.334Z,16.30
2022-09-19T10:23:31.289Z,16.20
2022-09-19T10:26:15.900Z,16.30
2022-09-19T10:28:57.844Z,16.40
2022-09-19T10:31:48.270Z,16.60
2022-09-19T10:34:37.326Z,16.80
2022-09-19T10:37:13.998Z,16.80
2022-09-19T10:39:47.173Z,16.70
2022-09-19T10:42:42.060Z,16.60
2022-09-19T10:45:19.411Z,16.60
2022-09-19T10:47:48.952Z,16.70
2022-09-19T10:50:20.193Z,16.70
2022-09-19T10:53:02.007Z,16.80
2022-09-19T10:55:30.144Z,16.80
2022-09-19T10:58:13.704Z,16.80
2022-09-19T11:00:58.533Z,16.80
2022-09-19T11:03:33.283Z,16.80
2022-09-19T11:06:14.011Z,16.90
2022-09-19T11:08:52.362Z,17.00
2022-09-19T11:11:41.602Z,17.10
2022-09-19T11:14:19.149Z,17.10
2022-09-19T11:17:11.207Z,17.10
2022-09-19T11:19:55.226Z,17.00
2022-09-19T11:22:57.832Z,17.00
2022-09-19T11:25:40.758Z,17.30
2022-09-19T11:28:45.567Z,17.70
2022-09-19T11:34:54.403Z,17.80
2022-09-19T11:37:26.844Z,17.40
2022-09-19T11:40:02.110Z,17.10
2022-09-19T11:42:42.435Z,16.90
2022-09-19T11:45:14.438Z,16.80
2022-09-19T11:48:17.541Z,16.70
2022-09-19T11:51:04.247Z,16.70
2022-09-19T11:53:49.479Z,16.70
2022-09-19T11:56:36.246Z,16.80
2022-09-19T11:59:18.616Z,16.90
2022-09-19T12:02:29.300Z,16.90
2022-09-19T12:05:41.016Z,17.00
2022-09-19T12:08:33.375Z,17.00
2022-09-19T12:11:13.930Z,17.10
2022-09-19T12:13:46.004Z,17.20
2022-09-19T12:16:40.606Z,17.50
2022-09-19T12:19:14.243Z,18.10
2022-09-19T12:21:50.411Z,19.10
2022-09-19T12:24:47.270Z,20.60
2022-09-19T12:27:20.998Z,21.90
2022-09-19T12:30:16.283Z,21.90
2022-09-19T12:32:57.178Z,20.90
2022-09-19T12:35:44.402Z,19.90
2022-09-19T12:38:26.050Z,18.80
2022-09-19T12:41:23.941Z,18.00
2022-09-19T12:44:28.206Z,17.60
2022-09-19T12:47:08.478Z,17.30
2022-09-19T12:50:01.431Z,17.20
2022-09-19T12:52:34.491Z,17.10
2022-09-19T12:55:21.725Z,17.10
2022-09-19T12:58:07.304Z,17.40
2022-09-19T13:00:40.094Z,19.00
2022-09-19T13:03:26.434Z,19.60
2022-09-19T13:06:06.961Z,20.20
2022-09-19T13:08:41.715Z,20.60
2022-09-19T13:11:26.311Z,20.50
2022-09-19T13:14:12.194Z,20.30
2022-09-19T13:17:00.203Z,20.00
2022-09-19T13:19:58.000Z,19.40
2022-09-19T13:22:44.016Z,18.60
2022-09-19T13:25:18.166Z,17.90
2022-09-19T13:27:46.503Z,17.60
2022-09-19T13:30:49.605Z,17.70
2022-09-19T13:33:26.930Z,18.10
2022-09-19T13:35:54.528Z,18.50
2022-09-19T13:38:26.680Z,18.70
2022-09-19T13:41:10.920Z,18.90
2022-09-19T13:44:07.479Z,19.00
2022-09-19T13:46:57.283Z,19.00
2022-09-19T13:49:32.643Z,18.90
2022-09-19T13:52:15.779Z,18.80
2022-09-19T13:54:51.294Z,18.70
2022-09-19T13:57:30.006Z,18.60
2022-09-19T14:00:01.740Z,18.70
2022-09-19T14:02:40.824Z,19.00
2022-09-19T14:05:17.535Z,19.50
2022-09-19T14:10:49.791Z,20.10
2022-09-19T14:13:25.281Z,20.10
2022-09-19T14:16:01.217Z,20.10
2022-09-19T14:18:33.269Z,19.90
2022-09-19T14:21:02.877Z,19.90
2022-09-19T14:23:43.712Z,19.80
2022-09-19T14:26:20.890Z,19.40
2022-09-19T14:29:17.427Z,19.10
2022-09-19T14:32:12.135Z,19.10
2022-09-19T14:34:55.261Z,19.20
2022-09-19T14:37:47.588Z,19.60
2022-09-19T14:40:39.796Z,20.00
2022-09-19T14:43:28.443Z,19.60
2022-09-19T14:46:17.383Z,18.70
2022-09-19T14:48:54.791Z,17.60
2022-09-19T14:51:31.931Z,16.60
2022-09-19T14:54:16.995Z,15.90
2022-09-19T14:57:01.595Z,15.50
2022-09-19T14:59:33.311Z,15.30
2022-09-19T15:02:22.632Z,15.30
2022-09-19T15:04:58.887Z,15.40
2022-09-19T15:07:30.570Z,15.80
2022-09-19T15:09:57.865Z,16.60
2022-09-19T15:12:31.543Z,17.30
2022-09-19T15:14:59.195Z,17.80
2022-09-19T15:17:32.706Z,18.00
2022-09-19T15:20:13.150Z,18.20
2022-09-19T15:22:53.516Z,18.40
2022-09-19T15:25:29.915Z,19.70
2022-09-19T15:28:00.194Z,20.50
2022-09-19T15:30:32.208Z,20.80
2022-09-19T15:33:11.574Z,20.80
2022-09-19T15:35:42.502Z,20.70
2022-09-19T15:38:19.287Z,20.40
2022-09-19T15:40:46.595Z,19.90
2022-09-19T15:43:14.400Z,19.40
2022-09-19T15:45:47.093Z,19.10
2022-09-19T15:48:21.342Z,18.80
2022-09-19T15:50:53.903Z,18.60
2022-09-19T15:53:38.795Z,18.40
2022-09-19T15:56:15.534Z,18.40
2022-09-19T15:58:59.164Z,18.50
2022-09-19T16:01:29.626Z,18.60
2022-09-19T16:04:00.818Z,18.40
2022-09-19T16:07:01.244Z,18.20
2022-09-19T16:09:34.802Z,17.80
2022-09-19T16:12:03.249Z,17.40
2022-09-19T16:14:43.071Z,17.20
2022-09-19T16:17:20.257Z,17.10
2022-09-19T16:19:47.814Z,17.00
2022-09-19T16:22:19.384Z,16.80
2022-09-19T16:25:02.315Z,16.80
2022-09-19T16:27:32.352Z,16.80
2022-09-19T16:30:02.239Z,16.90
2022-09-19T16:32:30.837Z,17.00
2022-09-19T16:35:01.657Z,17.00
2022-09-19T16:37:40.075Z,16.90
2022-09-19T16:40:27.049Z,16.80
2022-09-19T16:42:54.542Z,16.60
2022-09-19T16:45:41.334Z,16.50
2022-09-19T16:48:08.760Z,16.30
2022-09-19T16:50:40.872Z,16.20
2022-09-19T16:53:13.661Z,16.10
2022-09-19T16:55:42.356Z,16.00
2022-09-19T16:58:14.492Z,15.90
2022-09-19T17:00:42.105Z,15.90
2022-09-19T17:03:10.776Z,15.80
2022-09-19T17:05:39.141Z,15.90
2022-09-19T17:08:07.110Z,15.80
2022-09-19T17:10:36.196Z,15.70
2022-09-19T17:13:02.952Z,15.70
2022-09-19T17:15:44.418Z,15.60
2022-09-19T17:18:12.233Z,15.60
2022-09-19T17:20:40.616Z,15.50
2022-09-19T17:23:08.269Z,15.50
2022-09-19T17:25:47.822Z,15.40
2022-09-19T17:28:15.682Z,15.40
2022-09-19T17:30:45.054Z,15.30
2022-09-19T17:33:13.168Z,15.30
2022-09-19T17:35:41.420Z,15.20
2022-09-19T17:38:08.413Z,15.20
2022-09-19T17:40:37.623Z,15.20
2022-09-19T17:43:06.335Z,15.10
2022-09-19T17:45:33.885Z,15.10
2022-09-19T17:48:01.643Z,15.10
2022-09-19T17:50:30.421Z,15.00
2022-09-19T17:52:57.913Z,15.00
2022-09-19T17:55:24.676Z,15.00
2022-09-19T17:57:51.854Z,15.00
2022-09-19T18:00:18.522Z,14.90
2022-09-19T18:03:04.268Z,14.90
2022-09-19T18:05:32.338Z,14.90
2022-09-19T18:08:00.338Z,14.90
2022-09-19T18:10:28.700Z,14.80
2022-09-19T18:12:56.705Z,14.80
2022-09-19T18:15:28.432Z,14.70
2022-09-19T18:17:57.137Z,14.70
2022-09-19T18:20:27.326Z,14.60
2022-09-19T18:22:54.142Z,14.60
2022-09-19T18:25:21.440Z,14.60
2022-09-19T18:27:48.124Z,14.50
2022-09-19T18:30:16.428Z,14.50
2022-09-19T18:32:43.735Z,14.40
2022-09-19T18:35:15.035Z,14.40
2022-09-19T18:37:43.041Z,14.40
2022-09-19T18:40:11.795Z,14.30
2022-09-19T18:42:39.347Z,14.30
2022-09-19T18:45:07.742Z,14.30
2022-09-19T18:47:35.548Z,14.20
2022-09-19T18:50:03.271Z,14.10
2022-09-19T18:52:30.445Z,14.10
2022-09-19T18:54:57.116Z,14.10
2022-09-19T18:57:23.796Z,14.00
2022-09-19T18:59:50.546Z,14.00
2022-09-19T19:02:17.337Z,14.00
2022-09-19T19:04:44.038Z,13.90
2022-09-19T19:07:10.712Z,13.90
2022-09-19T19:09:37.424Z,13.90
2022-09-19T19:12:30.348Z,13.80
2022-09-19T19:14:55.895Z,13.80
2022-09-19T19:17:23.720Z,13.70
2022-09-19T19:19:50.770Z,13.60
2022-09-19T19:22:17.612Z,13.60
2022-09-19T19:24:44.254Z,13.50
2022-09-19T19:27:12.014Z,13.50
2022-09-19T19:29:38.902Z,13.40
2022-09-19T19:32:05.615Z,13.40
2022-09-19T19:34:32.383Z,13.30
2022-09-19T19:36:59.135Z,13.30
2022-09-19T19:39:25.777Z,13.20
2022-09-19T19:41:52.366Z,13.20
2022-09-19T19:44:20.206Z,13.10
2022-09-19T19:46:46.795Z,13.00
2022-09-19T19:49:13.904Z,13.00
2022-09-19T19:51:42.724Z,12.90
2022-09-19T19:54:12.265Z,12.90
2022-09-19T19:56:39.076Z,12.90
2022-09-19T19:59:07.512Z,12.90
2022-09-19T20:01:37.108Z,12.90
2022-09-19T20:04:08.016Z,12.80
2022-09-19T20:06:37.461Z,12.80
2022-09-19T20:09:06.175Z,12.70
2022-09-19T20:11:33.695Z,12.80
2022-09-19T20:14:03.169Z,12.80
2022-09-19T20:16:35.773Z,12.80
2022-09-19T20:19:05.144Z,12.90
2022-09-19T20:21:35.312Z,12.90
2022-09-19T20:24:03.203Z,13.00
2022-09-19T20:26:34.148Z,13.00
2022-09-19T20:29:02.095Z,13.00
2022-09-19T20:31:33.608Z,13.10
2022-09-19T20:34:05.047Z,13.10
2022-09-19T20:36:34.681Z,13.10
2022-09-19T20:39:01.292Z,13.10
2022-09-19T20:41:27.984Z,13.10
2022-09-19T20:43:55.800Z,13.10
2022-09-19T20:46:23.194Z,13.10
2022-09-19T20:48:50.229Z,13.10
2022-09-19T20:51:20.974Z,13.10
2022-09-19T20:53:54.088Z,13.10
2022-09-19T20:56:22.968Z,13.10
2022-09-19T20:58:54.800Z,13.10
2022-09-19T21:01:23.727Z,13.10
2022-09-19T21:03:51.451Z,13.00
2022-09-19T21:06:18.687Z,13.00
2022-09-19T21:08:46.742Z,13.00
2022-09-19T21:11:14.960Z,12.90
2022-09-19T21:13:44.250Z,13.00
2022-09-19T21:16:16.701Z,13.00
2022-09-19T21:18:47.788Z,13.00
2022-09-19T21:21:17.090Z,13.00
2022-09-19T21:23:44.192Z,13.00
2022-09-19T21:26:13.300Z,13.00
2022-09-19T21:28:41.807Z,13.00
2022-09-19T21:31:14.119Z,13.00
2022-09-19T21:33:41.008Z,13.00
2022-09-19T21:36:08.458Z,13.00
2022-09-19T21:38:35.795Z,13.00
2022-09-19T21:41:11.407Z,13.00
2022-09-19T21:43:43.288Z,13.00
2022-09-19T21:46:12.538Z,13.00
2022-09-19T21:48:41.057Z,13.10
2022-09-19T21:51:11.628Z,13.00
2022-09-19T21:53:38.605Z,13.00
2022-09-19T21:56:05.859Z,13.00
2022-09-19T21:58:32.951Z,12.90
2022-09-19T22:01:00.239Z,12.90
2022-09-19T22:03:28.938Z,12.90
2022-09-19T22:06:00.124Z,12.90
2022-09-19T22:08:31.504Z,12.90
2022-09-19T22:10:59.881Z,12.80
2022-09-19T22:13:27.971Z,12.80
2022-09-19T22:15:59.258Z,12.80
2022-09-19T22:18:27.144Z,12.80
2022-09-19T22:20:54.724Z,12.80
2022-09-19T22:23:22.175Z,12.80
2022-09-19T22:25:48.841Z,12.80
2022-09-19T22:28:15.875Z,12.80
2022-09-19T22:30:42.484Z,12.70
2022-09-19T22:33:09.152Z,12.80
2022-09-19T22:35:35.734Z,12.80
2022-09-19T22:38:02.376Z,12.70
2022-09-19T22:40:32.146Z,12.70
2022-09-19T22:42:59.471Z,12.70
2022-09-19T22:45:26.069Z,12.70
2022-09-19T22:47:52.763Z,12.70
2022-09-19T22:50:19.408Z,12.70
2022-09-19T22:52:46.075Z,12.70
2022-09-19T22:55:13.087Z,12.60
2022-09-19T22:57:39.735Z,12.60
2022-09-19T23:00:07.767Z,12.60
2022-09-19T23:02:35.335Z,12.50
2022-09-19T23:05:02.098Z,12.50
2022-09-19T23:07:28.861Z,12.40
2022-09-19T23:09:56.272Z,12.40
2022-09-19T23:12:22.900Z,12.30
2022-09-19T23:14:49.483Z,12.30
2022-09-19T23:17:16.079Z,12.20
2022-09-19T23:19:42.847Z,12.20
2022-09-19T23:22:09.514Z,12.20
2022-09-19T23:24:36.166Z,12.10
2022-09-19T23:27:02.967Z,12.10
2022-09-19T23:29:32.090Z,12.00
2022-09-19T23:31:58.835Z,12.00
2022-09-19T23:34:25.575Z,12.00
2022-09-19T23:36:54.490Z,11.90
2022-09-19T23:39:21.279Z,11.90
2022-09-19T23:41:47.907Z,11.90
2022-09-19T23:44:14.580Z,11.80
2022-09-19T23:46:41.169Z,11.80
2022-09-19T23:49:08.353Z,11.90
2022-09-19T23:51:35.319Z,11.90
2022-09-19T23:54:02.758Z,12.00
2022-09-19T23:56:31.306Z,12.00
2022-09-19T23:58:59.084Z,12.00
